Time;durP1;ratioP1;P1;durP2;ratioP2;P2;SDS_P1;SDS_P2;PMS_P1;PMS_P2;Temp;Humidity;BMP_temperature;BMP_pressure;BME280_temperature;BME280_humidity;BME280_pressure;Samples;Min_cycle;Max_cycle;Signal;HPM_P1;HPM_P2
2024/04/09 00:01:01;;;;;;;25.35;18.15;;;14.80;86.10;;;;;;6189702;23;20016;-73
2024/04/09 00:03:29;;;;;;;20.58;17.45;;;14.80;86.00;;;;;;6214911;23;20015;-74
2024/04/09 00:05:55;;;;;;;22.85;17.33;;;14.80;86.10;;;;;;6214878;23;20335;-73
2024/04/09 00:08:21;;;;;;;22.30;16.90;;;14.80;86.40;;;;;;6189946;23;20108;-74
2024/04/09 00:10:47;;;;;;;22.98;17.77;;;14.80;86.40;;;;;;6190013;23;20015;-75
2024/04/09 00:13:14;;;;;;;27.67;18.52;;;14.80;86.90;;;;;;6214814;23;20083;-75
2024/04/09 00:15:40;;;;;;;23.65;17.88;;;14.80;87.10;;;;;;6214761;23;20083;-75
2024/04/09 00:18:12;;;;;;;21.08;17.60;;;14.80;87.20;;;;;;6214554;23;20060;-74
2024/04/09 00:20:42;;;;;;;24.00;19.08;;;14.80;87.40;;;;;;6216107;23;20012;-75
2024/04/09 00:23:12;;;;;;;21.08;16.75;;;14.80;87.60;;;;;;6214363;23;20016;-75
2024/04/09 00:25:39;;;;;;;28.85;16.65;;;14.80;87.50;;;;;;6214497;23;20032;-75
2024/04/09 00:28:05;;;;;;;21.50;13.77;;;14.90;87.20;;;;;;6214722;23;20020;-74
2024/04/09 00:30:30;;;;;;;23.15;16.10;;;15.00;86.90;;;;;;6214529;23;20345;-75
2024/04/09 00:32:56;;;;;;;23.75;17.10;;;15.00;86.70;;;;;;6215911;23;20009;-74
2024/04/09 00:35:22;;;;;;;22.63;14.95;;;15.00;86.80;;;;;;6216484;23;20059;-75
2024/04/09 00:37:51;;;;;;;26.48;15.57;;;15.00;86.70;;;;;;6216047;23;20012;-75
2024/04/09 00:40:19;;;;;;;28.83;15.45;;;14.90;86.50;;;;;;6215886;23;20351;-75
2024/04/09 00:42:49;;;;;;;20.35;15.25;;;14.90;86.50;;;;;;6214291;23;20095;-75
2024/04/09 00:45:17;;;;;;;30.60;16.65;;;14.90;86.50;;;;;;6215517;23;20017;-75
2024/04/09 00:47:46;;;;;;;25.08;16.15;;;14.80;86.40;;;;;;6216008;23;20024;-75
2024/04/09 00:50:12;;;;;;;27.13;16.67;;;14.70;86.40;;;;;;6189886;23;20406;-74
2024/04/09 00:52:41;;;;;;;27.90;17.58;;;14.80;86.40;;;;;;6165267;23;20021;-75
2024/04/09 00:55:11;;;;;;;24.00;15.60;;;14.70;86.30;;;;;;6215766;23;20027;-75
2024/04/09 00:57:39;;;;;;;27.40;17.75;;;14.60;86.40;;;;;;6165230;23;20016;-76
2024/04/09 01:00:07;;;;;;;29.65;19.15;;;14.60;86.90;;;;;;6189944;23;20055;-76
2024/04/09 01:02:37;;;;;;;25.35;19.70;;;14.60;86.80;;;;;;6214332;23;20028;-75
2024/04/09 01:05:03;;;;;;;30.23;21.15;;;14.60;87.10;;;;;;6189222;23;20017;-74
2024/04/09 01:07:28;;;;;;;27.95;20.02;;;14.50;87.20;;;;;;6214202;23;20481;-75
2024/04/09 01:09:54;;;;;;;32.05;21.98;;;14.40;87.20;;;;;;6163920;23;20017;-74
2024/04/09 01:12:20;;;;;;;31.00;22.13;;;14.40;87.50;;;;;;6213780;23;20515;-74
2024/04/09 01:14:46;;;;;;;29.42;21.17;;;14.40;87.70;;;;;;6213751;23;20028;-75
2024/04/09 01:17:11;;;;;;;33.15;22.10;;;14.40;87.90;;;;;;6188158;23;20473;-75
2024/04/09 01:19:37;;;;;;;33.35;23.67;;;14.30;87.80;;;;;;6213330;23;20456;-75
2024/04/09 01:22:04;;;;;;;32.75;22.65;;;14.30;87.80;;;;;;6188692;23;20031;-74
2024/04/09 01:24:32;;;;;;;30.77;24.00;;;14.30;87.70;;;;;;6213547;23;20027;-75
2024/04/09 01:26:58;;;;;;;27.52;22.27;;;14.30;87.70;;;;;;6213235;23;20016;-75
2024/04/09 01:29:24;;;;;;;28.30;24.05;;;14.30;87.90;;;;;;6215059;23;20337;-75
2024/04/09 01:31:49;;;;;;;32.38;25.92;;;14.40;88.00;;;;;;6187823;23;20063;-75
2024/04/09 01:34:15;;;;;;;33.03;25.30;;;14.30;87.90;;;;;;6188209;23;20029;-76
2024/04/09 01:36:43;;;;;;;36.50;24.33;;;14.30;88.00;;;;;;6212637;23;20083;-75
2024/04/09 01:39:09;;;;;;;30.20;24.42;;;14.30;88.00;;;;;;6214382;23;20016;-75
2024/04/09 01:41:36;;;;;;;32.65;25.13;;;14.30;87.90;;;;;;6189632;23;20342;-75
2024/04/09 01:44:02;;;;;;;34.42;24.70;;;14.30;87.80;;;;;;6214404;23;20013;-75
2024/04/09 01:46:28;;;;;;;33.30;24.60;;;14.30;87.80;;;;;;6164929;23;20027;-75
2024/04/09 01:48:53;;;;;;;30.45;24.70;;;14.30;87.70;;;;;;6164336;23;20016;-75
2024/04/09 01:51:19;;;;;;;28.80;23.02;;;14.30;87.60;;;;;;6164614;23;20013;-75
2024/04/09 01:53:48;;;;;;;29.77;25.15;;;14.30;87.70;;;;;;6189278;23;20025;-76
2024/04/09 01:56:17;;;;;;;27.95;24.02;;;14.40;87.80;;;;;;6214634;23;20027;-75
2024/04/09 01:58:43;;;;;;;30.90;25.27;;;14.40;87.80;;;;;;6216477;23;20012;-75
2024/04/09 02:01:12;;;;;;;31.40;25.00;;;14.40;87.70;;;;;;6215545;23;20012;-75
2024/04/09 02:03:41;;;;;;;34.00;26.23;;;14.40;87.80;;;;;;6214546;23;20048;-75
2024/04/09 02:06:08;;;;;;;31.50;25.05;;;14.40;87.90;;;;;;6189416;23;20051;-75
2024/04/09 02:08:37;;;;;;;32.38;25.17;;;14.30;87.70;;;;;;6188222;23;20008;-75
2024/04/09 02:11:06;;;;;;;34.58;24.88;;;14.20;87.60;;;;;;6189382;23;20023;-75
2024/04/09 02:13:32;;;;;;;32.35;25.40;;;14.20;87.50;;;;;;6214105;23;20103;-76
2024/04/09 09:55:22;;;;;;;5.38;1.73;;;14.90;79.60;;;;;;6246102;22;20107;-76
2024/04/09 09:57:51;;;;;;;4.50;1.73;;;15.60;77.80;;;;;;6201920;23;20031;-76
2024/04/09 10:00:19;;;;;;;7.65;1.63;;;15.20;77.00;;;;;;6170794;23;20035;-78
2024/04/09 10:02:45;;;;;;;5.50;1.50;;;15.30;77.00;;;;;;6195716;23;20098;-75
2024/04/09 16:13:14;;;;;;;3.88;1.20;;;12.40;75.40;;;;;;6205423;23;20261;-76
2024/04/09 16:16:23;;;;;;;6.63;1.50;;;12.50;75.10;;;;;;6152326;23;20123;-73
2024/04/09 16:19:13;;;;;;;4.00;1.42;;;12.60;75.00;;;;;;6138867;23;20016;-74
2024/04/09 16:21:39;;;;;;;5.28;1.63;;;12.70;75.20;;;;;;6185227;23;20489;-76
2024/04/09 16:24:05;;;;;;;3.00;1.40;;;12.50;75.00;;;;;;6185497;23;20020;-76
2024/04/09 16:26:30;;;;;;;3.47;1.38;;;12.50;75.40;;;;;;6213163;23;20047;-75
2024/04/09 16:28:56;;;;;;;7.72;1.73;;;12.50;75.90;;;;;;6186170;23;20055;-75
2024/04/09 16:31:22;;;;;;;5.85;1.85;;;12.40;76.10;;;;;;6213084;23;20394;-74
2024/04/09 16:33:47;;;;;;;5.65;1.48;;;12.30;76.40;;;;;;6212687;23;20056;-76
2024/04/09 16:36:14;;;;;;;3.50;1.20;;;12.30;76.70;;;;;;6164297;23;20362;-75
2024/04/09 16:38:41;;;;;;;4.60;1.70;;;11.50;77.00;;;;;;6218918;23;20024;-76
2024/04/09 16:41:08;;;;;;;4.20;1.27;;;12.10;77.20;;;;;;6169207;23;20040;-76
2024/04/09 16:43:34;;;;;;;3.45;1.45;;;12.10;77.20;;;;;;6160586;23;20327;-76
2024/04/09 16:46:00;;;;;;;3.97;1.40;;;12.00;77.00;;;;;;6181890;23;20070;-75
2024/04/09 16:48:25;;;;;;;6.28;1.63;;;11.70;77.50;;;;;;6156585;23;20016;-76
2024/04/09 16:50:52;;;;;;;3.50;1.30;;;11.80;78.30;;;;;;6180421;23;20524;-75
2024/04/09 16:53:18;;;;;;;3.03;1.13;;;11.70;79.10;;;;;;6178771;23;20024;-75
2024/04/09 16:56:10;;;;;;;2.88;1.15;;;11.70;79.20;;;;;;6178064;23;20059;-74
